createdAt,value
2022-09-09T00:05:01.932Z,1.96
2022-09-09T00:20:14.282Z,1.86
2022-09-09T00:35:19.442Z,1.98
2022-09-09T00:50:42.288Z,1.71
2022-09-09T01:05:58.072Z,1.69
2022-09-09T01:20:55.663Z,1.68
2022-09-09T01:35:52.459Z,1.34
2022-09-09T01:50:46.224Z,1.11
2022-09-09T02:05:39.975Z,1.20
2022-09-09T02:20:35.158Z,1.16
2022-09-09T02:35:25.804Z,1.06
2022-09-09T02:50:34.819Z,0.94
2022-09-09T03:05:32.580Z,1.20
2022-09-09T03:20:24.663Z,1.10
2022-09-09T03:35:15.730Z,1.02
2022-09-09T03:50:07.450Z,1.09
2022-09-09T04:04:58.917Z,0.90
2022-09-09T04:19:51.416Z,1.24
2022-09-09T04:34:42.610Z,1.12
2022-09-09T04:49:34.650Z,1.36
2022-09-09T05:04:26.374Z,1.62
2022-09-09T05:19:18.853Z,1.21
2022-09-09T05:34:10.409Z,1.28
2022-09-09T05:49:02.500Z,1.52
2022-09-09T06:03:54.268Z,2.29
2022-09-09T06:18:45.715Z,1.16
2022-09-09T06:33:40.622Z,1.28
2022-09-09T06:48:35.543Z,1.43
2022-09-09T07:03:27.888Z,1.57
2022-09-09T07:18:20.460Z,1.38
2022-09-09T07:33:12.205Z,1.50
2022-09-09T07:48:03.954Z,1.40
2022-09-09T08:02:55.457Z,1.10
2022-09-09T08:17:48.299Z,1.43
2022-09-09T08:32:43.451Z,1.17
2022-09-09T08:47:51.462Z,1.40
2022-09-09T09:02:48.344Z,1.49
2022-09-09T09:17:39.741Z,1.50
2022-09-09T09:32:31.318Z,1.13
2022-09-09T09:47:23.376Z,1.30
2022-09-09T10:02:14.848Z,1.97
2022-09-09T10:17:24.641Z,1.38
2022-09-09T10:32:58.339Z,1.08
2022-09-09T10:48:10.205Z,0.98
2022-09-09T11:03:07.905Z,0.90
2022-09-09T11:18:00.517Z,1.26
2022-09-09T11:33:08.646Z,1.15
2022-09-09T11:48:08.945Z,1.45
2022-09-09T12:03:03.599Z,1.05
2022-09-09T12:18:02.926Z,1.23
2022-09-09T12:32:52.679Z,1.20
2022-09-09T12:47:46.714Z,0.85
2022-09-09T13:02:46.154Z,1.56
2022-09-09T13:17:38.870Z,1.08
2022-09-09T13:32:30.884Z,1.10
2022-09-09T13:47:22.405Z,1.10
2022-09-09T14:02:18.383Z,1.36
2022-09-09T14:17:10.904Z,1.70
2022-09-09T14:32:04.072Z,1.97
2022-09-09T14:46:55.493Z,2.69
2022-09-09T15:01:47.021Z,2.23
2022-09-09T15:16:39.167Z,2.53
2022-09-09T15:31:31.028Z,2.07
2022-09-09T15:46:41.864Z,1.88
2022-09-09T16:01:38.882Z,1.40
2022-09-09T16:16:29.305Z,1.86
2022-09-09T16:31:20.659Z,1.21
2022-09-09T16:46:14.889Z,0.97
2022-09-09T17:01:09.576Z,1.37
2022-09-09T17:31:13.788Z,1.36
2022-09-09T17:46:16.558Z,1.84
2022-09-09T18:01:12.167Z,2.20
2022-09-09T18:16:03.952Z,2.06
2022-09-09T18:30:55.643Z,1.80
2022-09-09T18:45:46.620Z,1.22
2022-09-09T19:00:38.709Z,1.61
2022-09-09T19:15:30.930Z,1.62
2022-09-09T19:30:22.410Z,1.91
2022-09-09T19:45:14.086Z,2.54
2022-09-09T20:00:06.177Z,2.16
2022-09-09T20:14:58.981Z,3.57
2022-09-09T20:29:51.270Z,2.82
2022-09-09T20:44:42.513Z,3.46
2022-09-09T20:59:34.237Z,3.71
2022-09-09T21:14:25.833Z,3.33
2022-09-09T21:29:17.443Z,2.56
2022-09-09T21:44:08.514Z,1.90
2022-09-09T21:59:00.577Z,1.43
2022-09-09T22:14:04.202Z,1.03
2022-09-09T22:28:55.977Z,1.20
2022-09-09T22:43:47.805Z,1.44
2022-09-09T22:58:40.122Z,1.60
2022-09-09T23:13:31.921Z,1.97
2022-09-09T23:28:23.758Z,3.02
2022-09-09T23:43:15.756Z,0.98
2022-09-09T23:58:07.631Z,0.78
